Time;durP1;ratioP1;P1;durP2;ratioP2;P2;SDS_P1;SDS_P2;PMS_P1;PMS_P2;Temp;Humidity;BMP_temperature;BMP_pressure;BME280_temperature;BME280_humidity;BME280_pressure;Samples;Min_cycle;Max_cycle;Signal;HPM_P1;HPM_P2
2020/12/07 00:01:45;;;;;;;28.13;20.60;;;6.60;94.00;;;;;;5035044;28;20025;-70
2020/12/07 00:04:11;;;;;;;26.35;20.48;;;6.60;94.00;;;;;;5035357;28;21030;-68
2020/12/07 00:06:37;;;;;;;26.42;20.48;;;6.60;94.00;;;;;;5035708;28;20092;-69
2020/12/07 00:09:03;;;;;;;27.98;21.63;;;6.70;94.00;;;;;;5034638;28;20025;-69
2020/12/07 00:11:29;;;;;;;29.92;21.00;;;6.60;94.00;;;;;;5035672;28;20026;-68
2020/12/07 00:13:54;;;;;;;26.05;20.45;;;6.60;94.00;;;;;;5034070;28;20508;-68
2020/12/07 00:16:20;;;;;;;30.30;22.33;;;6.60;94.10;;;;;;5034808;28;20053;-68
2020/12/07 00:18:45;;;;;;;29.27;22.00;;;6.60;94.10;;;;;;5035451;28;20088;-70
2020/12/07 00:21:11;;;;;;;28.77;21.40;;;6.60;94.10;;;;;;5035070;28;20109;-69
2020/12/07 00:23:37;;;;;;;25.20;19.63;;;6.60;94.00;;;;;;5034452;28;20029;-72
2020/12/07 00:26:07;;;;;;;29.98;20.98;;;6.60;94.10;;;;;;5034877;28;20042;-70
2020/12/07 00:28:32;;;;;;;28.15;21.27;;;6.50;94.00;;;;;;5035272;28;20432;-68
2020/12/07 00:30:58;;;;;;;25.05;18.95;;;6.50;94.10;;;;;;5034189;28;20033;-69
2020/12/07 00:33:23;;;;;;;24.73;20.65;;;6.50;94.20;;;;;;5035224;28;20026;-71
2020/12/07 00:35:49;;;;;;;26.88;20.17;;;6.50;94.20;;;;;;5035263;28;20022;-71
2020/12/07 00:38:14;;;;;;;22.85;17.80;;;6.50;94.20;;;;;;5034061;28;20546;-69
2020/12/07 00:40:40;;;;;;;24.20;18.67;;;6.60;94.20;;;;;;5035061;28;20028;-70
2020/12/07 00:43:05;;;;;;;25.35;19.00;;;6.60;94.20;;;;;;5034502;28;20037;-69
2020/12/07 00:45:31;;;;;;;23.52;18.88;;;6.60;94.20;;;;;;5034225;28;20030;-70
2020/12/07 00:47:56;;;;;;;24.90;19.00;;;6.60;94.20;;;;;;5034632;28;20482;-69
2020/12/07 00:50:22;;;;;;;24.02;18.88;;;6.60;94.20;;;;;;5034728;28;20029;-70
2020/12/07 00:52:47;;;;;;;22.33;17.80;;;6.70;94.20;;;;;;5016383;28;20018;-70
2020/12/07 00:55:13;;;;;;;26.95;19.42;;;6.70;94.20;;;;;;5034652;28;20482;-69
2020/12/07 00:57:38;;;;;;;22.30;18.63;;;6.70;94.20;;;;;;5034708;28;20466;-71
2020/12/07 01:00:06;;;;;;;24.02;18.98;;;6.70;94.20;;;;;;5033716;28;20509;-69
2020/12/07 01:02:33;;;;;;;25.17;19.00;;;6.70;94.20;;;;;;5034415;28;20029;-68
2020/12/07 01:04:59;;;;;;;23.15;18.35;;;6.70;94.20;;;;;;5033650;28;20061;-68
2020/12/07 01:07:24;;;;;;;26.08;19.42;;;6.80;94.20;;;;;;5034535;28;20049;-69
2020/12/07 01:09:50;;;;;;;28.80;20.15;;;6.80;94.10;;;;;;5034375;28;20401;-68
2020/12/07 01:12:15;;;;;;;27.67;20.13;;;6.80;94.20;;;;;;5033540;28;20022;-68
2020/12/07 01:14:41;;;;;;;24.08;18.98;;;6.80;94.10;;;;;;5034576;28;20513;-68
2020/12/07 01:17:06;;;;;;;24.08;20.05;;;6.90;94.10;;;;;;5034026;28;20107;-68
2020/12/07 01:19:32;;;;;;;25.67;19.30;;;6.90;94.10;;;;;;5033791;28;20112;-68
2020/12/07 01:21:57;;;;;;;26.80;20.45;;;6.90;94.00;;;;;;5033862;28;20025;-68
2020/12/07 01:24:23;;;;;;;28.23;18.70;;;6.90;94.00;;;;;;5033740;28;20532;-68
2020/12/07 01:26:48;;;;;;;24.50;18.92;;;6.90;94.00;;;;;;5033679;28;20026;-69
2020/12/07 01:29:14;;;;;;;23.63;18.38;;;6.90;94.00;;;;;;5033814;28;20474;-70
2020/12/07 01:31:39;;;;;;;27.25;17.70;;;6.90;94.00;;;;;;5034078;28;20017;-69
2020/12/07 01:34:05;;;;;;;24.38;17.83;;;6.90;94.00;;;;;;5033001;28;20029;-68
2020/12/07 01:36:30;;;;;;;23.13;17.70;;;7.00;94.00;;;;;;5034170;28;20078;-68
2020/12/07 01:38:56;;;;;;;22.88;18.30;;;7.00;94.00;;;;;;5033683;28;20037;-68
2020/12/07 01:41:21;;;;;;;23.90;18.05;;;7.00;94.00;;;;;;5033418;28;20033;-68
2020/12/07 01:43:47;;;;;;;25.27;19.08;;;6.90;93.90;;;;;;5033751;28;20043;-68
2020/12/07 01:46:20;;;;;;;24.52;19.08;;;7.00;94.00;;;;;;5033484;28;20493;-68
2020/12/07 01:48:46;;;;;;;22.80;18.05;;;6.90;93.90;;;;;;5033113;28;20033;-68
2020/12/07 01:51:14;;;;;;;23.40;18.30;;;6.90;94.00;;;;;;5033414;28;20053;-72
2020/12/07 01:53:39;;;;;;;26.08;19.35;;;6.90;94.00;;;;;;5015879;28;20025;-70
2020/12/07 01:56:09;;;;;;;23.52;18.45;;;6.90;94.00;;;;;;5032685;28;20033;-75
2020/12/07 01:58:34;;;;;;;23.88;18.63;;;6.90;94.10;;;;;;5033806;28;20017;-72
2020/12/07 02:01:02;;;;;;;23.50;18.20;;;6.90;94.10;;;;;;5033356;28;20017;-70
2020/12/07 02:03:28;;;;;;;24.20;17.60;;;6.90;94.10;;;;;;5032680;28;20108;-69
2020/12/07 02:05:53;;;;;;;24.30;19.38;;;6.90;94.10;;;;;;5033221;28;20501;-72
2020/12/07 02:08:19;;;;;;;28.67;20.25;;;6.90;94.10;;;;;;5032720;28;20022;-70
2020/12/07 02:10:46;;;;;;;24.75;19.75;;;6.90;94.00;;;;;;5033294;28;20478;-70
2020/12/07 02:13:12;;;;;;;25.02;19.45;;;6.90;94.10;;;;;;5032957;28;20029;-69
2020/12/07 02:15:39;;;;;;;26.02;20.90;;;6.80;94.00;;;;;;5032726;28;20021;-71
2020/12/07 02:18:05;;;;;;;25.08;20.55;;;6.80;94.00;;;;;;5033153;28;20095;-72
2020/12/07 02:20:31;;;;;;;26.77;21.35;;;6.80;94.00;;;;;;5033209;28;20021;-69
2020/12/07 02:22:57;;;;;;;31.73;22.98;;;6.70;94.10;;;;;;5031958;28;20064;-69
2020/12/07 02:25:23;;;;;;;28.08;22.02;;;6.70;94.10;;;;;;5033311;28;20049;-70
2020/12/07 02:27:50;;;;;;;26.35;21.15;;;6.70;94.10;;;;;;5033080;28;20416;-69
2020/12/07 02:30:20;;;;;;;27.48;21.95;;;6.70;94.20;;;;;;5032135;28;20493;-70
2020/12/07 02:32:47;;;;;;;28.30;22.00;;;6.60;94.20;;;;;;5032959;28;20032;-69
2020/12/07 02:35:14;;;;;;;26.73;21.80;;;6.60;94.20;;;;;;5032617;28;20029;-69
2020/12/07 02:37:41;;;;;;;26.65;20.45;;;6.60;94.20;;;;;;5031882;28;20021;-72
2020/12/07 02:40:07;;;;;;;28.00;20.80;;;6.60;94.20;;;;;;5032756;28;20501;-69
2020/12/07 02:42:34;;;;;;;26.67;20.80;;;6.50;94.20;;;;;;5033064;28;20433;-72
2020/12/07 02:45:01;;;;;;;19.95;17.75;;;6.50;94.30;;;;;;5031989;28;20057;-69
2020/12/07 02:47:27;;;;;;;22.10;18.20;;;6.50;94.30;;;;;;5032854;28;20037;-71
2020/12/07 02:49:56;;;;;;;19.98;16.88;;;6.50;94.40;;;;;;5032531;28;20022;-68
2020/12/07 02:52:26;;;;;;;21.10;16.90;;;6.50;94.40;;;;;;5032185;28;20022;-69
2020/12/07 02:54:56;;;;;;;24.50;19.05;;;6.50;94.40;;;;;;5032536;28;20112;-69
2020/12/07 02:57:22;;;;;;;21.17;17.58;;;6.60;94.40;;;;;;5032970;28;20029;-69
2020/12/07 02:59:50;;;;;;;21.05;17.30;;;6.60;94.40;;;;;;5032176;28;20017;-69
2020/12/07 03:02:16;;;;;;;24.42;18.40;;;6.60;94.40;;;;;;5032422;28;20017;-69
2020/12/07 03:04:41;;;;;;;25.80;19.58;;;6.60;94.40;;;;;;5032022;28;20133;-69
2020/12/07 03:07:07;;;;;;;23.88;19.40;;;6.60;94.40;;;;;;5032515;28;20533;-71
2020/12/07 03:09:33;;;;;;;25.45;20.30;;;6.50;94.40;;;;;;5032816;28;20382;-69
2020/12/07 03:11:58;;;;;;;24.95;20.23;;;6.60;94.40;;;;;;5031647;28;20025;-72
2020/12/07 03:14:24;;;;;;;24.00;18.85;;;6.60;94.40;;;;;;5032732;28;20036;-70
2020/12/07 03:16:51;;;;;;;22.55;18.10;;;6.50;94.40;;;;;;5032563;28;20021;-74
2020/12/07 03:19:17;;;;;;;24.20;18.95;;;6.50;94.40;;;;;;5031902;28;20095;-69
2020/12/07 03:21:42;;;;;;;23.33;19.20;;;6.50;94.40;;;;;;5032574;28;20021;-71
2020/12/07 03:24:08;;;;;;;26.27;20.67;;;6.50;94.50;;;;;;5032218;28;20033;-70
2020/12/07 03:26:34;;;;;;;26.52;20.15;;;6.50;94.50;;;;;;5031596;28;20046;-70
2020/12/07 03:29:02;;;;;;;23.20;18.95;;;6.50;94.50;;;;;;5032242;28;20028;-68
2020/12/07 03:31:29;;;;;;;21.75;17.50;;;6.50;94.50;;;;;;5032444;28;20029;-69
2020/12/07 03:33:54;;;;;;;26.08;20.45;;;6.50;94.50;;;;;;5031422;28;20028;-68
2020/12/07 03:36:20;;;;;;;24.30;19.90;;;6.50;94.50;;;;;;5032825;28;20381;-69
2020/12/07 03:38:45;;;;;;;26.38;20.38;;;6.50;94.50;;;;;;5032699;28;20498;-68
2020/12/07 03:41:11;;;;;;;22.63;18.15;;;6.50;94.50;;;;;;5031260;28;20036;-70
2020/12/07 03:43:36;;;;;;;23.08;17.73;;;6.50;94.50;;;;;;5032237;28;20044;-69
2020/12/07 03:46:02;;;;;;;27.55;20.67;;;6.50;94.50;;;;;;5032128;28;20036;-70
2020/12/07 03:48:27;;;;;;;26.38;20.27;;;6.50;94.60;;;;;;5016630;28;20370;-69
2020/12/07 03:50:53;;;;;;;24.20;18.70;;;6.50;94.70;;;;;;5035648;28;20018;-69
2020/12/07 03:53:19;;;;;;;23.25;18.30;;;6.50;94.70;;;;;;5035980;28;20029;-69
2020/12/07 03:55:45;;;;;;;23.23;18.58;;;6.50;94.70;;;;;;5035409;28;20385;-72
2020/12/07 03:58:10;;;;;;;22.10;17.63;;;6.50;94.70;;;;;;5035519;28;20037;-69
2020/12/07 04:00:36;;;;;;;21.27;16.38;;;6.60;94.70;;;;;;5035763;28;20084;-70
2020/12/07 04:03:04;;;;;;;23.45;18.85;;;6.60;94.70;;;;;;5034545;28;20358;-69
2020/12/07 04:05:35;;;;;;;24.77;19.65;;;6.60;94.70;;;;;;5035985;28;20025;-68
2020/12/07 04:08:01;;;;;;;24.67;18.83;;;6.60;94.70;;;;;;5034840;28;20025;-68
2020/12/07 04:10:26;;;;;;;22.88;18.75;;;6.70;94.70;;;;;;5035686;28;20437;-68
2020/12/07 04:12:52;;;;;;;23.88;19.00;;;6.70;94.70;;;;;;5035235;28;20470;-68
2020/12/07 04:15:18;;;;;;;26.02;20.25;;;6.70;94.70;;;;;;5034858;28;20021;-68
2020/12/07 04:17:43;;;;;;;25.98;19.75;;;6.70;94.70;;;;;;5035459;28;20029;-68
2020/12/07 04:20:09;;;;;;;24.65;20.83;;;6.80;94.90;;;;;;5035146;28;20048;-68
2020/12/07 04:22:34;;;;;;;27.15;20.95;;;6.80;94.60;;;;;;5034659;28;20104;-69
2020/12/07 04:25:00;;;;;;;25.58;21.17;;;6.80;94.60;;;;;;5035149;28;20056;-69
2020/12/07 04:27:25;;;;;;;26.67;22.55;;;6.80;94.60;;;;;;5035458;28;20096;-69
2020/12/07 04:29:52;;;;;;;27.48;20.92;;;6.80;94.60;;;;;;5034681;28;20072;-69
2020/12/07 04:32:17;;;;;;;26.27;21.50;;;6.80;94.60;;;;;;5035171;28;20072;-70
2020/12/07 04:34:43;;;;;;;24.63;20.17;;;6.70;94.50;;;;;;5017357;28;20430;-69
2020/12/07 04:37:08;;;;;;;24.10;20.52;;;6.70;94.50;;;;;;5034207;28;20078;-70
2020/12/07 04:39:34;;;;;;;24.27;20.02;;;6.70;94.50;;;;;;5035146;28;20493;-69
2020/12/07 04:42:01;;;;;;;21.85;18.98;;;6.70;94.50;;;;;;5034640;28;20467;-69
2020/12/07 04:44:27;;;;;;;21.45;17.73;;;6.60;94.60;;;;;;5016525;28;20508;-69
2020/12/07 04:46:54;;;;;;;21.27;17.95;;;6.60;94.60;;;;;;5034564;28;20532;-70
2020/12/07 04:49:21;;;;;;;20.00;17.88;;;6.50;94.70;;;;;;5034941;28;20025;-69
2020/12/07 04:51:49;;;;;;;21.65;18.45;;;6.40;94.80;;;;;;5034166;28;20029;-73
2020/12/07 04:54:15;;;;;;;26.20;19.50;;;6.40;94.80;;;;;;5016798;28;20453;-69
2020/12/07 04:56:42;;;;;;;21.88;18.10;;;6.40;94.80;;;;;;5034868;28;20426;-69
2020/12/07 04:59:08;;;;;;;19.45;17.20;;;6.40;94.90;;;;;;5033303;28;20076;-69
2020/12/07 05:01:34;;;;;;;22.23;17.10;;;6.40;94.90;;;;;;5034657;28;20377;-69
2020/12/07 05:03:59;;;;;;;23.58;18.05;;;6.30;94.90;;;;;;5016323;28;20474;-68
2020/12/07 05:06:29;;;;;;;20.52;17.77;;;6.30;95.00;;;;;;5033938;28;20100;-70
2020/12/07 05:08:54;;;;;;;22.48;18.40;;;6.30;95.10;;;;;;5034363;28;20100;-68
2020/12/07 05:11:20;;;;;;;22.55;18.10;;;6.30;95.10;;;;;;5033882;28;20056;-68
2020/12/07 05:14:06;;;;;;;21.08;17.48;;;6.30;95.10;;;;;;5034411;28;20022;-72
2020/12/07 05:16:31;;;;;;;20.35;18.15;;;6.30;95.10;;;;;;5034457;28;20021;-69
2020/12/07 05:18:58;;;;;;;20.58;17.38;;;6.40;95.10;;;;;;5033236;28;20036;-69
2020/12/07 05:21:23;;;;;;;21.02;16.95;;;6.40;95.10;;;;;;5034284;28;20454;-68
2020/12/07 05:23:52;;;;;;;20.77;18.05;;;6.40;95.10;;;;;;5034170;28;20069;-69
2020/12/07 05:26:19;;;;;;;24.48;18.83;;;6.40;95.10;;;;;;5015729;28;20132;-69
2020/12/07 05:28:51;;;;;;;21.02;17.83;;;6.40;95.20;;;;;;5034150;28;20037;-68
2020/12/07 05:31:18;;;;;;;;;;;6.40;95.10;;;;;;5034621;28;20151;-68
2020/12/07 05:33:46;;;;;;;21.98;17.85;;;6.40;95.20;;;;;;5033279;28;19905;-68
2020/12/07 05:36:13;;;;;;;20.92;17.92;;;6.40;95.10;;;;;;5033740;28;20037;-69
2020/12/07 05:38:38;;;;;;;24.00;19.83;;;6.40;95.20;;;;;;5034081;28;20096;-69
2020/12/07 05:41:05;;;;;;;24.83;19.73;;;6.40;95.20;;;;;;5032967;28;20568;-69
2020/12/07 05:43:32;;;;;;;23.08;19.88;;;6.40;95.20;;;;;;5033754;28;20115;-70
2020/12/07 05:45:59;;;;;;;21.38;18.90;;;6.40;95.20;;;;;;5033523;28;20057;-70
2020/12/07 05:48:35;;;;;;;22.27;18.65;;;6.40;95.20;;;;;;5033183;28;20025;-70
2020/12/07 05:51:08;;;;;;;24.23;20.15;;;6.40;95.20;;;;;;5033541;28;20021;-70
2020/12/07 05:53:37;;;;;;;20.90;17.50;;;6.40;95.20;;;;;;5033003;28;20577;-70
2020/12/07 05:56:05;;;;;;;21.70;19.15;;;6.40;95.20;;;;;;5033464;28;20017;-69
2020/12/07 05:58:41;;;;;;;23.52;19.92;;;6.40;95.20;;;;;;5033662;28;20029;-71
2020/12/07 06:01:09;;;;;;;22.13;19.65;;;6.50;95.20;;;;;;5032722;28;20021;-69
2020/12/07 06:03:35;;;;;;;26.20;20.85;;;6.60;95.20;;;;;;5033248;28;20095;-72
2020/12/07 06:06:00;;;;;;;22.15;19.70;;;6.60;95.10;;;;;;5033127;28;20045;-69
2020/12/07 06:08:31;;;;;;;26.55;22.73;;;6.60;95.10;;;;;;5032700;28;20474;-69
2020/12/07 06:11:17;;;;;;;25.30;20.92;;;6.60;95.10;;;;;;5032279;28;20028;-69
2020/12/07 06:13:43;;;;;;;25.15;21.38;;;6.60;95.00;;;;;;5032692;28;20496;-68
2020/12/07 06:16:08;;;;;;;22.70;19.40;;;6.60;95.00;;;;;;5032423;28;20056;-68
2020/12/07 06:18:42;;;;;;;24.20;20.55;;;6.50;95.00;;;;;;5033305;28;20053;-69
2020/12/07 06:21:17;;;;;;;25.60;20.80;;;6.50;95.10;;;;;;5032924;28;20497;-70
2020/12/07 06:23:43;;;;;;;21.58;18.60;;;6.50;95.20;;;;;;5032356;28;20033;-72
2020/12/07 06:26:12;;;;;;;24.42;20.17;;;6.50;95.20;;;;;;5032611;28;20053;-70
2020/12/07 06:28:40;;;;;;;20.52;17.48;;;6.50;95.10;;;;;;5032622;28;20028;-68
2020/12/07 06:31:17;;;;;;;22.30;18.45;;;6.50;95.10;;;;;;5032957;28;20359;-78
2020/12/07 06:33:48;;;;;;;22.27;18.90;;;6.50;95.20;;;;;;5032914;28;20026;-72
2020/12/07 06:36:23;;;;;;;22.02;18.02;;;6.50;95.20;;;;;;5032132;28;20458;-75
2020/12/07 06:38:49;;;;;;;22.65;18.52;;;6.50;95.20;;;;;;5032880;28;20025;-79
2020/12/07 06:41:28;;;;;;;21.60;18.10;;;6.50;95.20;;;;;;5032615;28;20013;-78
2020/12/07 06:43:58;;;;;;;25.88;19.17;;;6.40;95.30;;;;;;5031834;28;20418;-79
2020/12/07 06:46:46;;;;;;;20.95;17.73;;;6.50;95.30;;;;;;5032938;28;20028;-79
2020/12/07 06:49:12;;;;;;;19.95;16.63;;;6.50;95.30;;;;;;5032515;28;20472;-81
2020/12/07 06:51:38;;;;;;;19.85;17.17;;;6.50;95.30;;;;;;5032145;28;20038;-71
2020/12/07 06:55:01;;;;;;;22.58;18.98;;;6.50;95.30;;;;;;5032570;28;20024;-71
2020/12/07 06:56:52;;;;;;;21.45;17.67;;;6.50;95.30;;;;;;5031806;28;20037;-73
2020/12/07 06:59:17;;;;;;;20.65;17.17;;;6.50;95.30;;;;;;5032959;28;20024;-76
2020/12/07 07:01:50;;;;;;;20.83;17.55;;;6.50;95.30;;;;;;5032194;28;20463;-70
2020/12/07 07:04:19;;;;;;;26.25;18.25;;;6.50;95.40;;;;;;4998776;28;20042;-74
2020/12/07 07:06:44;;;;;;;22.38;18.52;;;6.40;95.40;;;;;;5018573;28;20068;-73
2020/12/07 07:09:10;;;;;;;21.55;18.48;;;6.50;95.40;;;;;;5031440;28;20034;-73
2020/12/07 07:11:36;;;;;;;23.23;19.27;;;6.50;95.50;;;;;;5032061;28;20466;-74
2020/12/07 07:14:01;;;;;;;22.02;18.80;;;6.50;95.40;;;;;;5031260;28;20077;-71
2020/12/07 07:16:27;;;;;;;23.73;18.83;;;6.60;95.40;;;;;;5032433;28;20025;-72
2020/12/07 07:18:52;;;;;;;22.98;19.08;;;6.60;95.40;;;;;;5031579;28;20076;-70
2020/12/07 07:21:18;;;;;;;21.38;18.02;;;6.60;95.40;;;;;;5013333;28;20022;-70
2020/12/07 07:23:45;;;;;;;21.25;17.80;;;6.60;95.40;;;;;;5016149;28;20025;-70
2020/12/07 07:26:24;;;;;;;22.27;18.35;;;6.50;95.40;;;;;;4997998;28;20050;-69
2020/12/07 07:28:51;;;;;;;21.08;16.60;;;6.60;95.50;;;;;;5016628;28;20025;-71
2020/12/07 07:31:17;;;;;;;20.95;18.17;;;6.60;95.50;;;;;;5017595;28;20026;-70
2020/12/07 07:33:43;;;;;;;22.55;18.08;;;6.60;95.40;;;;;;5035525;28;20025;-71
2020/12/07 07:36:23;;;;;;;20.92;16.27;;;6.60;95.40;;;;;;5035939;28;20025;-69
2020/12/07 07:38:55;;;;;;;21.05;17.50;;;6.50;95.40;;;;;;5035758;28;20418;-75
2020/12/07 07:41:27;;;;;;;22.50;17.23;;;6.60;95.50;;;;;;5036235;28;20025;-79
2020/12/07 07:43:54;;;;;;;;;;;6.60;95.50;;;;;;5018411;28;20040;-70
2020/12/07 07:46:20;;;;;;;19.23;15.15;;;6.60;95.40;;;;;;5035574;28;19950;-71
2020/12/07 07:54:35;;;;;;;20.95;16.63;;;6.60;95.40;;;;;;5035242;28;20029;-78
2020/12/07 08:16:18;;;;;;;154.65;21.95;;;6.60;95.60;;;;;;5045407;28;20090;-71
2020/12/07 08:18:44;;;;;;;328.10;29.63;;;6.60;95.60;;;;;;5047463;28;20025;-72
2020/12/07 08:21:10;;;;;;;678.55;44.03;;;6.60;95.60;;;;;;5043843;28;20025;-70
2020/12/07 08:23:36;;;;;;;28.98;20.13;;;6.60;95.70;;;;;;5047802;28;20033;-72
2020/12/07 08:26:04;;;;;;;22.15;19.58;;;6.70;95.70;;;;;;5019092;28;20502;-71
2020/12/07 08:28:33;;;;;;;26.48;20.67;;;6.70;95.70;;;;;;5016875;28;20025;-76
2020/12/07 08:31:13;;;;;;;22.90;18.42;;;6.80;95.60;;;;;;5034960;28;20433;-70
2020/12/07 08:33:55;;;;;;;25.55;18.58;;;6.80;95.50;;;;;;5034246;28;20057;-75
2020/12/07 08:36:20;;;;;;;19.17;17.02;;;6.80;95.50;;;;;;5034993;28;20145;-74
2020/12/07 08:38:47;;;;;;;21.17;17.80;;;6.90;95.40;;;;;;5017497;28;20068;-79
2020/12/07 08:41:27;;;;;;;456.95;30.08;;;6.90;95.30;;;;;;5035281;28;20462;-77
2020/12/07 08:43:55;;;;;;;29.08;17.73;;;6.90;95.20;;;;;;5049171;28;20398;-75
2020/12/07 08:46:23;;;;;;;20.73;18.05;;;6.90;95.20;;;;;;5055073;28;20023;-76
2020/12/07 08:48:49;;;;;;;23.27;15.60;;;6.90;95.20;;;;;;5055383;28;20473;-74
2020/12/07 08:51:18;;;;;;;22.98;17.63;;;6.90;95.20;;;;;;5053916;28;20017;-71
2020/12/07 08:53:43;;;;;;;808.85;54.97;;;7.00;95.50;;;;;;5054938;28;20561;-72
2020/12/07 08:56:10;;;;;;;67.38;20.83;;;7.00;95.10;;;;;;5053883;28;20093;-76
2020/12/07 08:58:37;;;;;;;22.27;16.95;;;7.00;95.10;;;;;;5029860;28;20105;-73
2020/12/07 09:01:04;;;;;;;20.85;15.90;;;7.00;95.10;;;;;;5014605;28;20096;-72
2020/12/07 09:03:30;;;;;;;41.60;17.48;;;7.00;95.00;;;;;;4996634;28;20071;-69
2020/12/07 09:05:56;;;;;;;29.10;16.60;;;7.00;95.00;;;;;;5027758;28;20029;-78
2020/12/07 09:08:21;;;;;;;23.02;17.45;;;7.10;95.00;;;;;;5017048;28;20029;-69
2020/12/07 09:10:47;;;;;;;27.45;17.88;;;7.10;95.00;;;;;;5034127;28;20084;-77
2020/12/07 09:13:12;;;;;;;170.27;22.50;;;7.10;94.70;;;;;;5022898;28;20076;-70
2020/12/07 09:15:38;;;;;;;240.20;29.08;;;7.00;94.70;;;;;;4997410;28;20030;-72
2020/12/07 09:18:04;;;;;;;20.65;17.13;;;7.00;94.80;;;;;;5027333;28;20021;-71
2020/12/07 09:20:29;;;;;;;17.85;15.95;;;7.00;94.80;;;;;;5034079;28;20030;-71
2020/12/07 09:22:55;;;;;;;95.78;19.17;;;6.90;94.70;;;;;;5026997;28;20115;-74
2020/12/07 09:25:20;;;;;;;46.60;17.65;;;6.90;94.70;;;;;;5013918;28;20076;-73
2020/12/07 09:27:46;;;;;;;21.30;18.08;;;6.90;94.70;;;;;;5027511;28;20112;-70
2020/12/07 09:30:11;;;;;;;21.98;16.63;;;6.90;94.80;;;;;;5017090;28;20025;-69
2020/12/07 09:32:37;;;;;;;18.08;15.07;;;6.90;94.60;;;;;;5016437;28;20390;-69
2020/12/07 09:35:04;;;;;;;18.65;16.65;;;6.90;94.60;;;;;;5034067;28;20017;-70
2020/12/07 09:37:29;;;;;;;20.95;18.48;;;6.80;94.50;;;;;;5016949;28;20028;-69
2020/12/07 09:39:55;;;;;;;21.05;17.35;;;6.80;94.60;;;;;;5020717;28;20097;-69
2020/12/07 09:42:21;;;;;;;21.88;17.40;;;6.90;94.60;;;;;;5014243;28;20378;-68
2020/12/07 09:44:47;;;;;;;60.92;19.58;;;7.00;94.40;;;;;;5014375;28;20036;-72
2020/12/07 09:47:12;;;;;;;90.60;24.65;;;7.00;94.40;;;;;;5013295;28;20466;-73
2020/12/07 09:49:38;;;;;;;18.30;16.35;;;7.00;94.40;;;;;;5002299;28;20106;-70
2020/12/07 09:52:04;;;;;;;22.20;18.52;;;7.00;94.60;;;;;;5033289;28;20026;-69
2020/12/07 09:54:29;;;;;;;24.10;17.75;;;7.10;94.20;;;;;;5032732;28;20112;-71
2020/12/07 09:56:55;;;;;;;147.82;27.08;;;7.00;94.20;;;;;;5033626;28;20021;-70
2020/12/07 09:59:20;;;;;;;20.10;17.55;;;7.00;94.20;;;;;;5033578;28;20385;-71
2020/12/07 10:01:46;;;;;;;19.60;17.50;;;7.00;94.10;;;;;;5014444;28;20351;-75
2020/12/07 10:04:12;;;;;;;20.80;18.42;;;7.00;93.90;;;;;;5033390;28;20081;-71
2020/12/07 10:06:37;;;;;;;22.25;17.27;;;6.90;94.00;;;;;;5032859;28;20076;-70
2020/12/07 10:09:03;;;;;;;20.65;18.23;;;6.90;94.10;;;;;;5016059;28;20391;-72
2020/12/07 10:11:28;;;;;;;21.58;18.55;;;6.90;94.00;;;;;;4996138;28;20022;-69
2020/12/07 10:13:54;;;;;;;25.65;19.00;;;6.90;94.10;;;;;;5016290;28;20542;-73
2020/12/07 10:16:20;;;;;;;200.23;27.42;;;7.00;94.10;;;;;;5038303;28;20029;-78
2020/12/07 10:18:46;;;;;;;24.45;19.10;;;7.00;94.10;;;;;;5034193;28;20028;-70
2020/12/07 10:21:11;;;;;;;22.42;18.80;;;7.10;94.10;;;;;;5011873;28;20316;-69
2020/12/07 10:23:37;;;;;;;23.85;19.83;;;7.10;94.10;;;;;;5046042;28;20036;-69
2020/12/07 10:26:02;;;;;;;26.35;21.27;;;7.20;94.00;;;;;;5052541;28;20056;-81
2020/12/07 10:28:28;;;;;;;26.45;21.50;;;7.20;94.00;;;;;;5032971;28;20356;-80
2020/12/07 10:30:54;;;;;;;24.60;20.48;;;7.20;93.90;;;;;;5019669;28;20056;-72
2020/12/07 10:33:20;;;;;;;23.55;19.92;;;7.20;93.80;;;;;;5014046;28;20029;-72
2020/12/07 10:35:45;;;;;;;27.38;22.02;;;7.30;93.80;;;;;;5052398;28;20124;-69
2020/12/07 10:38:11;;;;;;;26.38;21.80;;;7.30;93.70;;;;;;5042865;28;20604;-70
2020/12/07 10:40:36;;;;;;;26.23;21.25;;;7.30;93.70;;;;;;5015235;28;20505;-82
2020/12/07 10:43:02;;;;;;;25.20;21.05;;;7.40;93.70;;;;;;5013447;28;20061;-81
2020/12/07 10:45:27;;;;;;;27.48;22.25;;;7.30;93.50;;;;;;5018734;28;20048;-79
2020/12/07 10:47:53;;;;;;;28.80;23.15;;;7.20;93.50;;;;;;5032605;28;20037;-80
2020/12/07 10:50:22;;;;;;;29.25;22.90;;;7.20;93.60;;;;;;5014767;28;20025;-79
2020/12/07 10:52:50;;;;;;;30.65;24.42;;;7.20;93.60;;;;;;5014321;28;20025;-77
2020/12/07 10:55:15;;;;;;;34.97;22.42;;;7.20;93.50;;;;;;5014944;28;20390;-72
2020/12/07 10:57:41;;;;;;;39.25;23.45;;;7.20;93.50;;;;;;5014087;28;20025;-79
2020/12/07 11:00:07;;;;;;;27.55;22.42;;;7.10;93.60;;;;;;5013411;28;20017;-80
2020/12/07 11:02:33;;;;;;;33.38;24.75;;;7.00;93.60;;;;;;5011063;28;20022;-79
2020/12/07 11:04:59;;;;;;;32.58;25.05;;;6.90;93.70;;;;;;5035341;28;20041;-82
2020/12/07 11:07:26;;;;;;;31.15;26.10;;;6.90;93.90;;;;;;5032852;28;20450;-73
2020/12/07 11:09:51;;;;;;;34.28;27.30;;;7.00;94.00;;;;;;5031305;28;20091;-70
2020/12/07 11:12:20;;;;;;;37.40;29.58;;;7.00;93.90;;;;;;5032238;28;20470;-76
2020/12/07 11:14:46;;;;;;;32.00;25.42;;;7.00;93.90;;;;;;5032441;28;20390;-72
2020/12/07 11:17:12;;;;;;;109.03;30.17;;;7.00;93.90;;;;;;5030785;28;20101;-74
2020/12/07 11:19:37;;;;;;;37.92;29.17;;;7.00;93.80;;;;;;5031844;28;20067;-70
2020/12/07 11:22:04;;;;;;;36.75;29.17;;;7.10;93.80;;;;;;5031956;28;20032;-73
2020/12/07 11:24:29;;;;;;;43.10;31.52;;;7.10;93.70;;;;;;5031065;28;20041;-70
2020/12/07 11:26:55;;;;;;;42.63;31.15;;;7.10;93.60;;;;;;5014333;28;20026;-75
2020/12/07 11:29:20;;;;;;;42.67;31.88;;;7.10;93.60;;;;;;5031832;28;20421;-77
2020/12/07 11:31:49;;;;;;;38.88;30.52;;;7.10;93.50;;;;;;5032011;28;20089;-75
2020/12/07 11:34:19;;;;;;;50.15;35.13;;;7.00;93.50;;;;;;5032069;28;20034;-74
2020/12/07 11:36:49;;;;;;;46.10;33.97;;;7.00;93.50;;;;;;5032659;28;20048;-70
2020/12/07 11:39:40;;;;;;;48.70;34.20;;;7.00;93.50;;;;;;5031989;28;20410;-70
2020/12/07 11:44:32;;;;;;;45.35;32.72;;;7.10;93.50;;;;;;5031265;28;20068;-83
2020/12/07 11:47:00;;;;;;;41.35;31.45;;;7.00;93.40;;;;;;5011253;28;20018;-83
2020/12/07 11:49:26;;;;;;;46.40;33.78;;;7.00;93.50;;;;;;5014196;28;20036;-82
2020/12/07 11:51:52;;;;;;;46.15;32.30;;;7.10;93.50;;;;;;5031243;28;20022;-82
2020/12/07 11:54:20;;;;;;;41.38;29.95;;;7.10;93.50;;;;;;4994158;28;20080;-81
2020/12/07 11:56:45;;;;;;;41.17;31.80;;;7.10;93.30;;;;;;5010342;28;20029;-78
2020/12/07 11:59:11;;;;;;;44.67;30.88;;;7.10;93.20;;;;;;5012747;28;20033;-78
2020/12/07 12:01:37;;;;;;;41.10;30.27;;;7.10;93.20;;;;;;5014793;28;20026;-85
2020/12/07 12:04:04;;;;;;;43.90;31.00;;;7.10;93.30;;;;;;4994722;28;20060;-78
2020/12/07 12:06:31;;;;;;;42.38;30.70;;;7.20;93.30;;;;;;5011480;28;20416;-71
2020/12/07 12:08:58;;;;;;;40.10;29.27;;;7.20;93.20;;;;;;5014510;28;20028;-74
2020/12/07 12:11:32;;;;;;;40.33;29.80;;;7.20;93.30;;;;;;5034883;28;20028;-72
2020/12/07 12:13:59;;;;;;;38.53;28.48;;;7.20;93.30;;;;;;5016146;28;20029;-71
2020/12/07 12:16:27;;;;;;;66.85;29.23;;;7.30;93.30;;;;;;5017020;28;20029;-71
2020/12/07 12:18:53;;;;;;;33.55;25.85;;;7.40;93.40;;;;;;5016963;28;20061;-72
2020/12/07 12:21:19;;;;;;;35.05;26.20;;;7.30;92.90;;;;;;5034201;28;20036;-71
2020/12/07 12:23:47;;;;;;;35.05;25.13;;;7.30;92.80;;;;;;5034451;28;20029;-70
2020/12/07 12:26:16;;;;;;;33.03;24.30;;;7.30;92.90;;;;;;5034635;28;20053;-70
2020/12/07 12:28:42;;;;;;;95.07;26.25;;;7.20;92.70;;;;;;5033897;28;20470;-69
2020/12/07 12:31:08;;;;;;;33.70;23.90;;;7.20;92.70;;;;;;5016564;28;20076;-72
2020/12/07 12:33:34;;;;;;;32.35;22.88;;;7.10;92.90;;;;;;5034315;28;20032;-70
2020/12/07 12:35:59;;;;;;;33.35;24.38;;;7.10;92.90;;;;;;5033633;28;20038;-73
2020/12/07 12:38:25;;;;;;;36.33;23.65;;;7.10;93.00;;;;;;5034717;28;20048;-71
2020/12/07 12:40:51;;;;;;;31.98;23.50;;;7.10;93.10;;;;;;5016923;28;20120;-72
2020/12/07 12:43:16;;;;;;;32.63;23.90;;;7.10;93.00;;;;;;5014219;28;20551;-71
2020/12/07 12:45:42;;;;;;;32.70;23.23;;;7.20;93.00;;;;;;5032939;28;20080;-80
2020/12/07 12:48:08;;;;;;;59.42;23.90;;;7.10;92.90;;;;;;5016689;28;20029;-81
2020/12/07 12:50:34;;;;;;;28.75;20.90;;;7.10;93.00;;;;;;5017156;28;20389;-82
2020/12/07 12:53:00;;;;;;;32.33;22.35;;;7.00;93.00;;;;;;5034398;28;20108;-80
2020/12/07 12:55:25;;;;;;;28.33;19.73;;;7.00;93.00;;;;;;5016235;28;20434;-81
2020/12/07 12:57:51;;;;;;;31.15;21.42;;;6.90;92.90;;;;;;5016932;28;20029;-78
2020/12/07 13:00:17;;;;;;;30.95;21.10;;;6.90;93.00;;;;;;5035419;28;20527;-83
2020/12/07 13:02:42;;;;;;;30.33;21.55;;;6.80;93.00;;;;;;5016830;28;20032;-86
2020/12/07 13:05:08;;;;;;;31.02;21.63;;;6.80;93.00;;;;;;5016593;28;20041;-72